sensor_id;sensor_type;location;lat;lon;timestamp;P1;durP1;ratioP1;P2;durP2;ratioP2
77524;SDS011;66638;50.050;21.124;2023-10-08T00:03:23;1.40;;;1.10;;
77524;SDS011;66638;50.050;21.124;2023-10-08T00:06:10;1.60;;;0.90;;
77524;SDS011;66638;50.050;21.124;2023-10-08T00:09:00;1.40;;;1.00;;
77524;SDS011;66638;50.050;21.124;2023-10-08T00:11:47;1.00;;;0.70;;
77524;SDS011;66638;50.050;21.124;2023-10-08T00:14:39;1.00;;;0.80;;
77524;SDS011;66638;50.050;21.124;2023-10-08T00:17:29;1.20;;;0.80;;
77524;SDS011;66638;50.050;21.124;2023-10-08T00:20:16;1.20;;;0.80;;
77524;SDS011;66638;50.050;21.124;2023-10-08T00:23:11;0.80;;;0.70;;
77524;SDS011;66638;50.050;21.124;2023-10-08T00:25:56;0.90;;;0.80;;
77524;SDS011;66638;50.050;21.124;2023-10-08T00:31:33;0.80;;;0.80;;
77524;SDS011;66638;50.050;21.124;2023-10-08T00:34:26;0.90;;;0.50;;
77524;SDS011;66638;50.050;21.124;2023-10-08T00:37:12;0.80;;;0.60;;
77524;SDS011;66638;50.050;21.124;2023-10-08T00:40:00;1.10;;;0.80;;
77524;SDS011;66638;50.050;21.124;2023-10-08T00:42:50;1.60;;;0.60;;
77524;SDS011;66638;50.050;21.124;2023-10-08T00:45:42;0.30;;;0.30;;
77524;SDS011;66638;50.050;21.124;2023-10-08T00:48:29;0.80;;;0.30;;
77524;SDS011;66638;50.050;21.124;2023-10-08T00:51:23;0.70;;;0.40;;
77524;SDS011;66638;50.050;21.124;2023-10-08T00:54:30;0.70;;;0.70;;
77524;SDS011;66638;50.050;21.124;2023-10-08T00:57:19;0.30;;;0.30;;
77524;SDS011;66638;50.050;21.124;2023-10-08T01:00:13;1.10;;;0.60;;
77524;SDS011;66638;50.050;21.124;2023-10-08T01:03:07;0.70;;;0.60;;
77524;SDS011;66638;50.050;21.124;2023-10-08T01:06:00;1.10;;;0.40;;
77524;SDS011;66638;50.050;21.124;2023-10-08T01:08:48;0.60;;;0.40;;
77524;SDS011;66638;50.050;21.124;2023-10-08T01:11:39;0.60;;;0.50;;
77524;SDS011;66638;50.050;21.124;2023-10-08T01:14:35;1.20;;;0.60;;
77524;SDS011;66638;50.050;21.124;2023-10-08T01:17:22;1.40;;;0.60;;
77524;SDS011;66638;50.050;21.124;2023-10-08T01:20:17;0.80;;;0.60;;
77524;SDS011;66638;50.050;21.124;2023-10-08T01:23:19;0.90;;;0.40;;
77524;SDS011;66638;50.050;21.124;2023-10-08T01:26:12;1.10;;;0.80;;
77524;SDS011;66638;50.050;21.124;2023-10-08T01:28:58;1.30;;;0.50;;
77524;SDS011;66638;50.050;21.124;2023-10-08T01:31:49;0.50;;;0.40;;
77524;SDS011;66638;50.050;21.124;2023-10-08T01:34:35;0.40;;;0.40;;
77524;SDS011;66638;50.050;21.124;2023-10-08T01:37:22;0.40;;;0.40;;
77524;SDS011;66638;50.050;21.124;2023-10-08T01:40:08;0.60;;;0.60;;
77524;SDS011;66638;50.050;21.124;2023-10-08T01:42:54;0.50;;;0.50;;
77524;SDS011;66638;50.050;21.124;2023-10-08T01:45:40;0.80;;;0.50;;
77524;SDS011;66638;50.050;21.124;2023-10-08T01:48:27;0.70;;;0.60;;
77524;SDS011;66638;50.050;21.124;2023-10-08T01:51:17;1.60;;;0.70;;
77524;SDS011;66638;50.050;21.124;2023-10-08T01:54:10;0.70;;;0.60;;
77524;SDS011;66638;50.050;21.124;2023-10-08T01:56:56;0.70;;;0.70;;
77524;SDS011;66638;50.050;21.124;2023-10-08T01:59:42;1.40;;;0.60;;
77524;SDS011;66638;50.050;21.124;2023-10-08T02:02:30;0.90;;;0.50;;
77524;SDS011;66638;50.050;21.124;2023-10-08T02:05:16;1.00;;;0.60;;
77524;SDS011;66638;50.050;21.124;2023-10-08T02:08:04;0.30;;;0.30;;
77524;SDS011;66638;50.050;21.124;2023-10-08T02:10:52;1.00;;;0.50;;
77524;SDS011;66638;50.050;21.124;2023-10-08T02:13:38;1.10;;;0.60;;
77524;SDS011;66638;50.050;21.124;2023-10-08T02:16:24;1.50;;;0.80;;
77524;SDS011;66638;50.050;21.124;2023-10-08T02:19:10;1.40;;;0.70;;
77524;SDS011;66638;50.050;21.124;2023-10-08T02:21:56;1.70;;;0.90;;
77524;SDS011;66638;50.050;21.124;2023-10-08T02:24:43;1.50;;;1.00;;
77524;SDS011;66638;50.050;21.124;2023-10-08T02:27:29;1.10;;;0.90;;
77524;SDS011;66638;50.050;21.124;2023-10-08T02:30:19;2.10;;;0.70;;
77524;SDS011;66638;50.050;21.124;2023-10-08T02:33:05;1.10;;;0.90;;
77524;SDS011;66638;50.050;21.124;2023-10-08T02:36:02;1.70;;;0.90;;
77524;SDS011;66638;50.050;21.124;2023-10-08T02:38:49;5.10;;;1.10;;
77524;SDS011;66638;50.050;21.124;2023-10-08T02:41:35;2.40;;;0.90;;
77524;SDS011;66638;50.050;21.124;2023-10-08T02:44:25;1.40;;;0.90;;
77524;SDS011;66638;50.050;21.124;2023-10-08T02:49:59;1.60;;;0.90;;
77524;SDS011;66638;50.050;21.124;2023-10-08T02:52:45;1.50;;;0.90;;
77524;SDS011;66638;50.050;21.124;2023-10-08T02:55:31;1.60;;;0.80;;
77524;SDS011;66638;50.050;21.124;2023-10-08T02:58:20;2.10;;;0.90;;
77524;SDS011;66638;50.050;21.124;2023-10-08T03:01:07;0.90;;;0.90;;
77524;SDS011;66638;50.050;21.124;2023-10-08T03:03:58;0.80;;;0.60;;
77524;SDS011;66638;50.050;21.124;2023-10-08T03:06:56;1.30;;;0.80;;
77524;SDS011;66638;50.050;21.124;2023-10-08T03:09:42;1.40;;;0.90;;
77524;SDS011;66638;50.050;21.124;2023-10-08T03:12:28;1.10;;;1.00;;
77524;SDS011;66638;50.050;21.124;2023-10-08T03:15:17;1.00;;;0.80;;
77524;SDS011;66638;50.050;21.124;2023-10-08T03:18:14;1.20;;;0.80;;
77524;SDS011;66638;50.050;21.124;2023-10-08T03:21:00;1.50;;;0.90;;
77524;SDS011;66638;50.050;21.124;2023-10-08T03:23:49;1.30;;;0.80;;
77524;SDS011;66638;50.050;21.124;2023-10-08T03:26:43;1.20;;;0.80;;
77524;SDS011;66638;50.050;21.124;2023-10-08T03:29:31;1.40;;;0.80;;
77524;SDS011;66638;50.050;21.124;2023-10-08T03:35:03;1.50;;;0.90;;
77524;SDS011;66638;50.050;21.124;2023-10-08T03:37:50;0.60;;;0.60;;
77524;SDS011;66638;50.050;21.124;2023-10-08T03:40:36;2.10;;;0.80;;
77524;SDS011;66638;50.050;21.124;2023-10-08T03:43:30;2.60;;;1.30;;
77524;SDS011;66638;50.050;21.124;2023-10-08T03:46:20;1.90;;;1.10;;
77524;SDS011;66638;50.050;21.124;2023-10-08T03:49:08;4.10;;;1.10;;
77524;SDS011;66638;50.050;21.124;2023-10-08T03:52:15;1.40;;;0.70;;
77524;SDS011;66638;50.050;21.124;2023-10-08T03:55:00;3.30;;;1.40;;
77524;SDS011;66638;50.050;21.124;2023-10-08T03:58:05;2.40;;;0.90;;
77524;SDS011;66638;50.050;21.124;2023-10-08T04:00:55;1.80;;;1.20;;
77524;SDS011;66638;50.050;21.124;2023-10-08T04:03:53;3.40;;;1.00;;
77524;SDS011;66638;50.050;21.124;2023-10-08T04:06:44;2.30;;;1.20;;
77524;SDS011;66638;50.050;21.124;2023-10-08T04:09:35;3.40;;;1.30;;
77524;SDS011;66638;50.050;21.124;2023-10-08T04:12:20;2.70;;;1.10;;
77524;SDS011;66638;50.050;21.124;2023-10-08T04:15:06;3.20;;;1.50;;
77524;SDS011;66638;50.050;21.124;2023-10-08T04:17:53;2.20;;;1.40;;
77524;SDS011;66638;50.050;21.124;2023-10-08T04:20:39;3.50;;;1.60;;
77524;SDS011;66638;50.050;21.124;2023-10-08T04:23:25;3.60;;;1.60;;
77524;SDS011;66638;50.050;21.124;2023-10-08T04:26:10;2.50;;;1.30;;
77524;SDS011;66638;50.050;21.124;2023-10-08T04:28:56;3.30;;;1.80;;
77524;SDS011;66638;50.050;21.124;2023-10-08T04:31:43;2.80;;;1.40;;
77524;SDS011;66638;50.050;21.124;2023-10-08T04:34:32;4.60;;;1.40;;
77524;SDS011;66638;50.050;21.124;2023-10-08T04:37:19;2.50;;;1.10;;
77524;SDS011;66638;50.050;21.124;2023-10-08T04:43:01;3.50;;;1.70;;
77524;SDS011;66638;50.050;21.124;2023-10-08T04:45:48;2.90;;;1.40;;
77524;SDS011;66638;50.050;21.124;2023-10-08T04:48:35;2.30;;;1.10;;
77524;SDS011;66638;50.050;21.124;2023-10-08T04:54:10;3.90;;;1.50;;
77524;SDS011;66638;50.050;21.124;2023-10-08T04:59:51;2.30;;;1.20;;
77524;SDS011;66638;50.050;21.124;2023-10-08T05:02:39;1.90;;;1.20;;
77524;SDS011;66638;50.050;21.124;2023-10-08T05:05:45;2.80;;;1.70;;
77524;SDS011;66638;50.050;21.124;2023-10-08T05:08:51;2.80;;;1.20;;
77524;SDS011;66638;50.050;21.124;2023-10-08T05:11:55;2.90;;;1.40;;
77524;SDS011;66638;50.050;21.124;2023-10-08T05:15:01;3.40;;;1.40;;
77524;SDS011;66638;50.050;21.124;2023-10-08T05:18:06;2.60;;;1.30;;
77524;SDS011;66638;50.050;21.124;2023-10-08T05:21:13;3.20;;;1.50;;
77524;SDS011;66638;50.050;21.124;2023-10-08T05:24:11;3.80;;;1.60;;
77524;SDS011;66638;50.050;21.124;2023-10-08T05:27:07;2.00;;;1.30;;
77524;SDS011;66638;50.050;21.124;2023-10-08T05:30:13;4.50;;;1.50;;
77524;SDS011;66638;50.050;21.124;2023-10-08T05:33:34;3.60;;;1.80;;
77524;SDS011;66638;50.050;21.124;2023-10-08T05:36:41;4.10;;;2.00;;
77524;SDS011;66638;50.050;21.124;2023-10-08T05:39:46;2.20;;;1.30;;
77524;SDS011;66638;50.050;21.124;2023-10-08T05:42:41;4.60;;;1.60;;
77524;SDS011;66638;50.050;21.124;2023-10-08T05:45:32;3.60;;;1.50;;
77524;SDS011;66638;50.050;21.124;2023-10-08T05:48:20;6.60;;;1.80;;
77524;SDS011;66638;50.050;21.124;2023-10-08T05:51:12;3.70;;;1.30;;
77524;SDS011;66638;50.050;21.124;2023-10-08T05:54:13;4.10;;;1.90;;
77524;SDS011;66638;50.050;21.124;2023-10-08T05:57:21;3.30;;;1.80;;
77524;SDS011;66638;50.050;21.124;2023-10-08T06:00:24;3.20;;;1.40;;
77524;SDS011;66638;50.050;21.124;2023-10-08T06:03:30;3.20;;;1.60;;
77524;SDS011;66638;50.050;21.124;2023-10-08T06:06:33;3.80;;;1.60;;
77524;SDS011;66638;50.050;21.124;2023-10-08T06:09:23;6.00;;;2.00;;
77524;SDS011;66638;50.050;21.124;2023-10-08T06:12:21;4.20;;;1.50;;
77524;SDS011;66638;50.050;21.124;2023-10-08T06:15:15;3.60;;;1.70;;
77524;SDS011;66638;50.050;21.124;2023-10-08T06:18:13;5.80;;;1.70;;
77524;SDS011;66638;50.050;21.124;2023-10-08T06:21:05;6.00;;;1.70;;
77524;SDS011;66638;50.050;21.124;2023-10-08T06:23:54;4.70;;;2.10;;
77524;SDS011;66638;50.050;21.124;2023-10-08T06:26:42;4.90;;;2.00;;
77524;SDS011;66638;50.050;21.124;2023-10-08T06:29:27;4.10;;;1.80;;
77524;SDS011;66638;50.050;21.124;2023-10-08T06:32:15;4.50;;;1.70;;
77524;SDS011;66638;50.050;21.124;2023-10-08T06:35:01;4.40;;;1.80;;
77524;SDS011;66638;50.050;21.124;2023-10-08T06:37:48;5.10;;;1.80;;
77524;SDS011;66638;50.050;21.124;2023-10-08T06:40:35;4.80;;;1.90;;
77524;SDS011;66638;50.050;21.124;2023-10-08T06:43:30;5.80;;;2.30;;
77524;SDS011;66638;50.050;21.124;2023-10-08T06:46:16;3.60;;;1.50;;
77524;SDS011;66638;50.050;21.124;2023-10-08T06:49:06;4.70;;;1.80;;
77524;SDS011;66638;50.050;21.124;2023-10-08T06:51:56;4.70;;;2.30;;
77524;SDS011;66638;50.050;21.124;2023-10-08T06:54:43;5.30;;;2.30;;
77524;SDS011;66638;50.050;21.124;2023-10-08T06:57:29;5.50;;;2.20;;
77524;SDS011;66638;50.050;21.124;2023-10-08T07:00:15;4.70;;;2.10;;
77524;SDS011;66638;50.050;21.124;2023-10-08T07:03:21;6.00;;;2.40;;
77524;SDS011;66638;50.050;21.124;2023-10-08T07:06:08;6.30;;;2.30;;
77524;SDS011;66638;50.050;21.124;2023-10-08T07:09:11;3.80;;;2.00;;
77524;SDS011;66638;50.050;21.124;2023-10-08T07:12:19;3.40;;;1.80;;
77524;SDS011;66638;50.050;21.124;2023-10-08T07:15:05;4.20;;;1.90;;
77524;SDS011;66638;50.050;21.124;2023-10-08T07:17:57;5.90;;;2.70;;
77524;SDS011;66638;50.050;21.124;2023-10-08T07:20:54;9.70;;;2.60;;
77524;SDS011;66638;50.050;21.124;2023-10-08T07:26:49;5.80;;;2.30;;
77524;SDS011;66638;50.050;21.124;2023-10-08T07:29:37;6.50;;;2.80;;
77524;SDS011;66638;50.050;21.124;2023-10-08T07:32:23;5.00;;;2.10;;
77524;SDS011;66638;50.050;21.124;2023-10-08T07:35:12;6.00;;;2.90;;
77524;SDS011;66638;50.050;21.124;2023-10-08T07:38:27;4.20;;;1.50;;
77524;SDS011;66638;50.050;21.124;2023-10-08T07:41:15;4.40;;;1.90;;
77524;SDS011;66638;50.050;21.124;2023-10-08T07:44:01;4.60;;;1.80;;
77524;SDS011;66638;50.050;21.124;2023-10-08T07:46:52;5.40;;;1.60;;
77524;SDS011;66638;50.050;21.124;2023-10-08T07:49:40;4.70;;;1.90;;
77524;SDS011;66638;50.050;21.124;2023-10-08T07:52:30;4.10;;;2.00;;
77524;SDS011;66638;50.050;21.124;2023-10-08T07:55:16;6.30;;;1.70;;
77524;SDS011;66638;50.050;21.124;2023-10-08T07:58:03;3.80;;;1.90;;
77524;SDS011;66638;50.050;21.124;2023-10-08T08:00:49;4.90;;;1.80;;
77524;SDS011;66638;50.050;21.124;2023-10-08T08:03:39;2.90;;;1.70;;
77524;SDS011;66638;50.050;21.124;2023-10-08T08:06:27;5.00;;;1.90;;
77524;SDS011;66638;50.050;21.124;2023-10-08T08:09:12;5.00;;;1.60;;
77524;SDS011;66638;50.050;21.124;2023-10-08T08:12:05;4.10;;;1.80;;
77524;SDS011;66638;50.050;21.124;2023-10-08T08:14:56;3.80;;;1.70;;
77524;SDS011;66638;50.050;21.124;2023-10-08T08:17:42;3.80;;;1.50;;
77524;SDS011;66638;50.050;21.124;2023-10-08T08:20:28;3.10;;;1.50;;
77524;SDS011;66638;50.050;21.124;2023-10-08T08:23:24;4.60;;;1.70;;
77524;SDS011;66638;50.050;21.124;2023-10-08T08:26:11;4.00;;;1.80;;
77524;SDS011;66638;50.050;21.124;2023-10-08T08:29:01;4.10;;;1.60;;
77524;SDS011;66638;50.050;21.124;2023-10-08T08:31:47;4.70;;;1.70;;
77524;SDS011;66638;50.050;21.124;2023-10-08T08:34:38;3.30;;;1.70;;
77524;SDS011;66638;50.050;21.124;2023-10-08T08:37:29;3.70;;;1.80;;
77524;SDS011;66638;50.050;21.124;2023-10-08T08:40:19;2.80;;;1.70;;
77524;SDS011;66638;50.050;21.124;2023-10-08T08:43:10;3.70;;;1.90;;
77524;SDS011;66638;50.050;21.124;2023-10-08T08:45:57;3.10;;;1.90;;
77524;SDS011;66638;50.050;21.124;2023-10-08T08:51:30;4.30;;;1.70;;
77524;SDS011;66638;50.050;21.124;2023-10-08T08:54:16;2.90;;;1.50;;
77524;SDS011;66638;50.050;21.124;2023-10-08T08:57:03;2.60;;;1.30;;
77524;SDS011;66638;50.050;21.124;2023-10-08T08:59:58;2.60;;;1.50;;
77524;SDS011;66638;50.050;21.124;2023-10-08T09:02:45;3.20;;;1.70;;
77524;SDS011;66638;50.050;21.124;2023-10-08T09:05:33;3.60;;;1.80;;
77524;SDS011;66638;50.050;21.124;2023-10-08T09:08:20;2.70;;;1.90;;
77524;SDS011;66638;50.050;21.124;2023-10-08T09:11:13;2.70;;;1.30;;
77524;SDS011;66638;50.050;21.124;2023-10-08T09:14:07;4.10;;;1.70;;
77524;SDS011;66638;50.050;21.124;2023-10-08T09:16:53;3.50;;;1.70;;
77524;SDS011;66638;50.050;21.124;2023-10-08T09:19:42;3.30;;;1.60;;
77524;SDS011;66638;50.050;21.124;2023-10-08T09:22:28;4.60;;;1.90;;
77524;SDS011;66638;50.050;21.124;2023-10-08T09:25:21;4.20;;;1.80;;
77524;SDS011;66638;50.050;21.124;2023-10-08T09:28:08;5.20;;;1.60;;
77524;SDS011;66638;50.050;21.124;2023-10-08T09:30:58;4.40;;;1.70;;
77524;SDS011;66638;50.050;21.124;2023-10-08T09:33:53;3.40;;;2.00;;
77524;SDS011;66638;50.050;21.124;2023-10-08T09:36:39;2.90;;;1.60;;
77524;SDS011;66638;50.050;21.124;2023-10-08T09:39:28;4.90;;;2.10;;
77524;SDS011;66638;50.050;21.124;2023-10-08T09:42:16;2.80;;;1.60;;
77524;SDS011;66638;50.050;21.124;2023-10-08T09:45:01;3.70;;;1.80;;
77524;SDS011;66638;50.050;21.124;2023-10-08T09:47:55;2.70;;;1.70;;
77524;SDS011;66638;50.050;21.124;2023-10-08T09:50:41;2.70;;;1.80;;
77524;SDS011;66638;50.050;21.124;2023-10-08T09:53:32;3.00;;;1.60;;
77524;SDS011;66638;50.050;21.124;2023-10-08T09:56:27;2.90;;;1.80;;
77524;SDS011;66638;50.050;21.124;2023-10-08T09:59:14;3.40;;;1.60;;
77524;SDS011;66638;50.050;21.124;2023-10-08T10:02:01;2.30;;;1.50;;
77524;SDS011;66638;50.050;21.124;2023-10-08T10:04:49;3.20;;;1.90;;
77524;SDS011;66638;50.050;21.124;2023-10-08T10:07:42;3.50;;;1.90;;
77524;SDS011;66638;50.050;21.124;2023-10-08T10:10:30;3.60;;;1.90;;
77524;SDS011;66638;50.050;21.124;2023-10-08T10:13:18;3.20;;;1.80;;
77524;SDS011;66638;50.050;21.124;2023-10-08T10:16:17;4.60;;;1.80;;
77524;SDS011;66638;50.050;21.124;2023-10-08T10:19:04;3.10;;;1.70;;
77524;SDS011;66638;50.050;21.124;2023-10-08T10:21:52;2.90;;;1.90;;
77524;SDS011;66638;50.050;21.124;2023-10-08T10:24:38;2.90;;;1.90;;
77524;SDS011;66638;50.050;21.124;2023-10-08T10:27:27;3.20;;;2.00;;
77524;SDS011;66638;50.050;21.124;2023-10-08T10:30:12;3.20;;;1.60;;
77524;SDS011;66638;50.050;21.124;2023-10-08T10:35:51;4.20;;;1.80;;
77524;SDS011;66638;50.050;21.124;2023-10-08T10:38:37;3.10;;;1.70;;
77524;SDS011;66638;50.050;21.124;2023-10-08T10:41:23;3.50;;;1.90;;
77524;SDS011;66638;50.050;21.124;2023-10-08T10:44:09;3.40;;;1.80;;
77524;SDS011;66638;50.050;21.124;2023-10-08T10:46:56;3.00;;;1.70;;
77524;SDS011;66638;50.050;21.124;2023-10-08T10:50:04;3.40;;;1.90;;
77524;SDS011;66638;50.050;21.124;2023-10-08T10:53:10;2.90;;;1.90;;
77524;SDS011;66638;50.050;21.124;2023-10-08T10:55:58;3.40;;;2.10;;
77524;SDS011;66638;50.050;21.124;2023-10-08T10:59:01;3.00;;;1.80;;
77524;SDS011;66638;50.050;21.124;2023-10-08T11:02:01;3.30;;;1.80;;
77524;SDS011;66638;50.050;21.124;2023-10-08T11:04:53;2.90;;;1.60;;
77524;SDS011;66638;50.050;21.124;2023-10-08T11:07:39;3.80;;;1.80;;
77524;SDS011;66638;50.050;21.124;2023-10-08T11:10:26;4.30;;;2.20;;
77524;SDS011;66638;50.050;21.124;2023-10-08T11:13:13;2.90;;;1.70;;
77524;SDS011;66638;50.050;21.124;2023-10-08T11:16:06;3.40;;;1.40;;
77524;SDS011;66638;50.050;21.124;2023-10-08T11:18:55;2.10;;;1.40;;
77524;SDS011;66638;50.050;21.124;2023-10-08T11:21:49;1.90;;;1.30;;
77524;SDS011;66638;50.050;21.124;2023-10-08T11:24:36;2.30;;;1.50;;
77524;SDS011;66638;50.050;21.124;2023-10-08T11:27:26;3.20;;;1.50;;
77524;SDS011;66638;50.050;21.124;2023-10-08T11:30:20;2.00;;;1.40;;
77524;SDS011;66638;50.050;21.124;2023-10-08T11:33:08;2.50;;;1.50;;
77524;SDS011;66638;50.050;21.124;2023-10-08T11:36:01;3.20;;;1.50;;
77524;SDS011;66638;50.050;21.124;2023-10-08T11:38:47;2.00;;;1.50;;
77524;SDS011;66638;50.050;21.124;2023-10-08T11:41:34;3.60;;;1.50;;
77524;SDS011;66638;50.050;21.124;2023-10-08T11:44:35;3.50;;;1.60;;
77524;SDS011;66638;50.050;21.124;2023-10-08T11:47:21;2.30;;;1.60;;
77524;SDS011;66638;50.050;21.124;2023-10-08T11:50:07;2.20;;;1.40;;
77524;SDS011;66638;50.050;21.124;2023-10-08T11:53:02;2.20;;;1.50;;
77524;SDS011;66638;50.050;21.124;2023-10-08T11:55:49;2.50;;;1.50;;
77524;SDS011;66638;50.050;21.124;2023-10-08T11:58:35;4.20;;;2.00;;
77524;SDS011;66638;50.050;21.124;2023-10-08T12:01:23;2.90;;;1.60;;
77524;SDS011;66638;50.050;21.124;2023-10-08T12:04:10;3.30;;;1.60;;
77524;SDS011;66638;50.050;21.124;2023-10-08T12:09:52;3.60;;;1.80;;
77524;SDS011;66638;50.050;21.124;2023-10-08T12:12:39;3.00;;;1.90;;
77524;SDS011;66638;50.050;21.124;2023-10-08T12:15:25;3.00;;;1.70;;
77524;SDS011;66638;50.050;21.124;2023-10-08T12:18:24;3.00;;;1.70;;
77524;SDS011;66638;50.050;21.124;2023-10-08T12:23:59;2.40;;;1.30;;
77524;SDS011;66638;50.050;21.124;2023-10-08T12:26:50;2.70;;;1.40;;
77524;SDS011;66638;50.050;21.124;2023-10-08T12:29:37;4.30;;;1.70;;
77524;SDS011;66638;50.050;21.124;2023-10-08T12:32:24;2.90;;;1.50;;
77524;SDS011;66638;50.050;21.124;2023-10-08T12:35:12;3.50;;;1.60;;
77524;SDS011;66638;50.050;21.124;2023-10-08T12:38:01;3.10;;;1.40;;
77524;SDS011;66638;50.050;21.124;2023-10-08T12:40:47;2.60;;;1.50;;
77524;SDS011;66638;50.050;21.124;2023-10-08T12:43:39;3.40;;;1.60;;
77524;SDS011;66638;50.050;21.124;2023-10-08T12:46:28;3.10;;;1.60;;
77524;SDS011;66638;50.050;21.124;2023-10-08T12:49:16;2.60;;;1.20;;
77524;SDS011;66638;50.050;21.124;2023-10-08T12:52:02;2.60;;;1.30;;
77524;SDS011;66638;50.050;21.124;2023-10-08T12:54:48;3.70;;;1.60;;
77524;SDS011;66638;50.050;21.124;2023-10-08T12:57:38;2.70;;;1.20;;
77524;SDS011;66638;50.050;21.124;2023-10-08T13:00:26;2.80;;;1.50;;
77524;SDS011;66638;50.050;21.124;2023-10-08T13:03:12;4.60;;;2.00;;
77524;SDS011;66638;50.050;21.124;2023-10-08T13:06:09;3.60;;;1.40;;
77524;SDS011;66638;50.050;21.124;2023-10-08T13:09:07;2.40;;;1.40;;
77524;SDS011;66638;50.050;21.124;2023-10-08T13:11:58;2.90;;;1.30;;
77524;SDS011;66638;50.050;21.124;2023-10-08T13:14:44;2.20;;;1.50;;
77524;SDS011;66638;50.050;21.124;2023-10-08T13:17:31;2.70;;;1.30;;
77524;SDS011;66638;50.050;21.124;2023-10-08T13:20:17;3.50;;;1.40;;
77524;SDS011;66638;50.050;21.124;2023-10-08T13:23:03;3.40;;;1.50;;
77524;SDS011;66638;50.050;21.124;2023-10-08T13:25:53;3.10;;;1.40;;
77524;SDS011;66638;50.050;21.124;2023-10-08T13:28:40;2.20;;;1.20;;
77524;SDS011;66638;50.050;21.124;2023-10-08T13:31:26;2.70;;;1.10;;
77524;SDS011;66638;50.050;21.124;2023-10-08T13:37:01;2.80;;;1.20;;
77524;SDS011;66638;50.050;21.124;2023-10-08T13:39:47;2.80;;;1.30;;
77524;SDS011;66638;50.050;21.124;2023-10-08T13:42:33;2.70;;;1.40;;
77524;SDS011;66638;50.050;21.124;2023-10-08T13:45:19;4.30;;;1.70;;
77524;SDS011;66638;50.050;21.124;2023-10-08T13:48:11;2.90;;;1.40;;
77524;SDS011;66638;50.050;21.124;2023-10-08T13:51:00;4.30;;;1.40;;
77524;SDS011;66638;50.050;21.124;2023-10-08T13:53:54;3.00;;;1.10;;
77524;SDS011;66638;50.050;21.124;2023-10-08T13:56:45;3.00;;;1.40;;
77524;SDS011;66638;50.050;21.124;2023-10-08T13:59:33;4.40;;;1.50;;
77524;SDS011;66638;50.050;21.124;2023-10-08T14:02:19;3.50;;;1.30;;
77524;SDS011;66638;50.050;21.124;2023-10-08T14:05:07;1.40;;;0.90;;
77524;SDS011;66638;50.050;21.124;2023-10-08T14:07:54;2.10;;;1.10;;
77524;SDS011;66638;50.050;21.124;2023-10-08T14:10:43;1.70;;;1.20;;
77524;SDS011;66638;50.050;21.124;2023-10-08T14:13:30;2.50;;;1.30;;
77524;SDS011;66638;50.050;21.124;2023-10-08T14:16:17;2.90;;;1.40;;
77524;SDS011;66638;50.050;21.124;2023-10-08T14:19:11;2.50;;;1.10;;
77524;SDS011;66638;50.050;21.124;2023-10-08T14:22:00;2.80;;;1.30;;
77524;SDS011;66638;50.050;21.124;2023-10-08T14:24:48;2.60;;;1.10;;
77524;SDS011;66638;50.050;21.124;2023-10-08T14:27:43;2.50;;;1.20;;
77524;SDS011;66638;50.050;21.124;2023-10-08T14:30:38;3.20;;;1.50;;
77524;SDS011;66638;50.050;21.124;2023-10-08T14:33:27;3.00;;;1.40;;
77524;SDS011;66638;50.050;21.124;2023-10-08T14:36:16;2.20;;;1.30;;
77524;SDS011;66638;50.050;21.124;2023-10-08T14:39:22;4.50;;;1.70;;
77524;SDS011;66638;50.050;21.124;2023-10-08T14:42:28;2.80;;;1.20;;
77524;SDS011;66638;50.050;21.124;2023-10-08T14:45:34;4.00;;;1.50;;
77524;SDS011;66638;50.050;21.124;2023-10-08T14:48:21;2.60;;;1.30;;
77524;SDS011;66638;50.050;21.124;2023-10-08T14:51:07;2.20;;;1.30;;
77524;SDS011;66638;50.050;21.124;2023-10-08T14:53:53;2.40;;;1.30;;
77524;SDS011;66638;50.050;21.124;2023-10-08T14:56:39;3.10;;;1.20;;
77524;SDS011;66638;50.050;21.124;2023-10-08T14:59:25;2.60;;;1.10;;
77524;SDS011;66638;50.050;21.124;2023-10-08T15:02:13;4.00;;;1.40;;
77524;SDS011;66638;50.050;21.124;2023-10-08T15:04:59;2.20;;;1.30;;
77524;SDS011;66638;50.050;21.124;2023-10-08T15:07:46;2.90;;;1.30;;
77524;SDS011;66638;50.050;21.124;2023-10-08T15:10:32;1.80;;;1.10;;
77524;SDS011;66638;50.050;21.124;2023-10-08T15:13:18;4.90;;;1.60;;
77524;SDS011;66638;50.050;21.124;2023-10-08T15:16:05;3.50;;;1.40;;
77524;SDS011;66638;50.050;21.124;2023-10-08T15:18:51;2.60;;;1.10;;
77524;SDS011;66638;50.050;21.124;2023-10-08T15:21:38;2.20;;;1.20;;
77524;SDS011;66638;50.050;21.124;2023-10-08T15:24:25;3.40;;;1.30;;
77524;SDS011;66638;50.050;21.124;2023-10-08T15:27:11;4.20;;;1.30;;
77524;SDS011;66638;50.050;21.124;2023-10-08T15:29:57;1.80;;;1.00;;
77524;SDS011;66638;50.050;21.124;2023-10-08T15:32:43;4.00;;;1.40;;
77524;SDS011;66638;50.050;21.124;2023-10-08T15:35:29;2.90;;;1.20;;
77524;SDS011;66638;50.050;21.124;2023-10-08T15:38:16;2.20;;;1.20;;
77524;SDS011;66638;50.050;21.124;2023-10-08T15:41:02;2.30;;;1.10;;
77524;SDS011;66638;50.050;21.124;2023-10-08T15:43:50;2.00;;;1.20;;
77524;SDS011;66638;50.050;21.124;2023-10-08T15:46:37;3.20;;;1.30;;
77524;SDS011;66638;50.050;21.124;2023-10-08T15:49:22;2.40;;;1.30;;
77524;SDS011;66638;50.050;21.124;2023-10-08T15:52:07;1.80;;;1.30;;
77524;SDS011;66638;50.050;21.124;2023-10-08T15:54:53;1.80;;;1.10;;
77524;SDS011;66638;50.050;21.124;2023-10-08T15:57:39;4.80;;;1.80;;
77524;SDS011;66638;50.050;21.124;2023-10-08T16:00:26;2.90;;;1.40;;
77524;SDS011;66638;50.050;21.124;2023-10-08T16:03:12;2.90;;;1.40;;
77524;SDS011;66638;50.050;21.124;2023-10-08T16:05:58;2.20;;;1.20;;
77524;SDS011;66638;50.050;21.124;2023-10-08T16:08:44;4.50;;;1.40;;
77524;SDS011;66638;50.050;21.124;2023-10-08T16:11:31;1.90;;;1.30;;
77524;SDS011;66638;50.050;21.124;2023-10-08T16:14:17;2.60;;;1.50;;
77524;SDS011;66638;50.050;21.124;2023-10-08T16:17:05;1.90;;;1.10;;
77524;SDS011;66638;50.050;21.124;2023-10-08T16:19:55;2.80;;;1.40;;
77524;SDS011;66638;50.050;21.124;2023-10-08T16:22:42;2.60;;;1.50;;
77524;SDS011;66638;50.050;21.124;2023-10-08T16:25:30;3.30;;;1.30;;
77524;SDS011;66638;50.050;21.124;2023-10-08T16:31:03;2.60;;;1.30;;
77524;SDS011;66638;50.050;21.124;2023-10-08T16:33:52;4.70;;;2.10;;
77524;SDS011;66638;50.050;21.124;2023-10-08T16:36:38;2.90;;;1.30;;
77524;SDS011;66638;50.050;21.124;2023-10-08T16:39:24;3.30;;;1.60;;
77524;SDS011;66638;50.050;21.124;2023-10-08T16:42:09;4.30;;;1.70;;
77524;SDS011;66638;50.050;21.124;2023-10-08T16:44:57;3.50;;;1.20;;
77524;SDS011;66638;50.050;21.124;2023-10-08T16:47:43;2.90;;;1.40;;
77524;SDS011;66638;50.050;21.124;2023-10-08T16:50:33;3.70;;;1.80;;
77524;SDS011;66638;50.050;21.124;2023-10-08T16:53:19;4.60;;;1.70;;
77524;SDS011;66638;50.050;21.124;2023-10-08T16:56:05;3.10;;;1.60;;
77524;SDS011;66638;50.050;21.124;2023-10-08T16:58:51;3.80;;;1.90;;
77524;SDS011;66638;50.050;21.124;2023-10-08T17:01:41;4.50;;;1.80;;
77524;SDS011;66638;50.050;21.124;2023-10-08T17:04:27;3.60;;;1.80;;
77524;SDS011;66638;50.050;21.124;2023-10-08T17:07:13;5.30;;;2.20;;
77524;SDS011;66638;50.050;21.124;2023-10-08T17:10:01;5.20;;;2.10;;
77524;SDS011;66638;50.050;21.124;2023-10-08T17:12:51;5.10;;;2.30;;
77524;SDS011;66638;50.050;21.124;2023-10-08T17:15:37;5.00;;;2.10;;
77524;SDS011;66638;50.050;21.124;2023-10-08T17:18:26;4.50;;;2.50;;
77524;SDS011;66638;50.050;21.124;2023-10-08T17:21:15;6.40;;;2.40;;
77524;SDS011;66638;50.050;21.124;2023-10-08T17:24:04;4.40;;;2.40;;
77524;SDS011;66638;50.050;21.124;2023-10-08T17:26:52;6.10;;;2.50;;